Time;durP1;ratioP1;P1;durP2;ratioP2;P2;SDS_P1;SDS_P2;PMS_P1;PMS_P2;Temp;Humidity;BMP_temperature;BMP_pressure;BME280_temperature;BME280_humidity;BME280_pressure;Samples;Min_cycle;Max_cycle;Signal;HPM_P1;HPM_P2
2021/09/28 00:01:00;;;;;;;5.80;1.67;;;12.90;99.90;;;;;;5038284;28;20567;-51
2021/09/28 00:03:27;;;;;;;7.03;1.77;;;12.90;99.90;;;;;;5040017;28;20683;-51
2021/09/28 00:05:53;;;;;;;5.23;1.80;;;12.90;99.90;;;;;;5040039;28;20603;-51
2021/09/28 00:08:20;;;;;;;7.30;1.70;;;12.80;99.90;;;;;;5038602;28;20676;-50
2021/09/28 00:10:47;;;;;;;3.70;1.33;;;12.80;99.90;;;;;;5041081;28;20239;-51
2021/09/28 00:13:16;;;;;;;4.53;1.53;;;12.80;99.90;;;;;;5039979;28;20644;-50
2021/09/28 00:15:42;;;;;;;4.47;1.40;;;12.80;99.90;;;;;;5042229;28;20663;-51
2021/09/28 00:18:09;;;;;;;5.37;1.53;;;12.80;99.90;;;;;;5042666;28;20271;-50
2021/09/28 00:20:39;;;;;;;6.20;1.60;;;12.80;99.90;;;;;;5039861;28;20237;-50
2021/09/28 00:23:07;;;;;;;4.73;1.30;;;12.70;99.90;;;;;;5039550;28;20338;-50
2021/09/28 00:25:34;;;;;;;4.90;1.60;;;12.70;99.90;;;;;;5020761;28;20225;-50
2021/09/28 00:28:00;;;;;;;9.67;1.53;;;12.60;99.90;;;;;;5038670;28;20298;-50
2021/09/28 00:30:27;;;;;;;5.90;1.33;;;12.50;99.90;;;;;;5037771;28;20308;-51
2021/09/28 00:32:54;;;;;;;4.37;1.40;;;12.60;99.90;;;;;;5042303;28;20387;-50
2021/09/28 00:35:21;;;;;;;5.67;1.50;;;12.70;99.90;;;;;;5037526;28;20206;-50
2021/09/28 00:37:48;;;;;;;5.03;1.60;;;12.60;99.90;;;;;;5040587;28;20325;-50
2021/09/28 00:40:15;;;;;;;5.93;1.50;;;12.70;99.90;;;;;;5037083;28;20198;-51
2021/09/28 00:42:41;;;;;;;5.87;1.90;;;12.60;99.90;;;;;;5037858;28;20220;-50
2021/09/28 00:45:09;;;;;;;6.23;1.63;;;12.70;99.90;;;;;;5038877;28;20293;-50
2021/09/28 00:47:36;;;;;;;3.37;1.40;;;12.70;99.90;;;;;;5044468;28;20284;-51
2021/09/28 00:50:04;;;;;;;8.03;2.23;;;12.70;99.90;;;;;;5042906;28;20244;-50
2021/09/28 00:52:31;;;;;;;4.27;1.60;;;12.70;99.90;;;;;;5037895;28;20297;-50
2021/09/28 00:54:59;;;;;;;3.80;1.47;;;12.70;99.90;;;;;;5038966;28;20206;-50
2021/09/28 00:57:26;;;;;;;5.50;1.40;;;12.70;99.90;;;;;;5057212;28;20231;-51
2021/09/28 00:59:55;;;;;;;5.77;1.80;;;12.70;99.90;;;;;;5059566;28;20675;-50
2021/09/28 01:02:22;;;;;;;2.87;1.40;;;12.70;99.90;;;;;;5056431;28;20225;-50
2021/09/28 01:04:49;;;;;;;3.33;1.43;;;12.70;99.90;;;;;;5060793;28;20212;-50
2021/09/28 01:07:16;;;;;;;5.13;1.70;;;12.70;99.90;;;;;;5063318;28;20543;-51
2021/09/28 01:09:43;;;;;;;3.83;1.37;;;12.80;99.90;;;;;;5056943;28;20251;-50
2021/09/28 01:12:12;;;;;;;2.60;1.20;;;12.70;99.90;;;;;;5057134;28;20292;-51
2021/09/28 01:14:41;;;;;;;8.87;1.40;;;12.70;99.90;;;;;;5061120;28;20259;-51
2021/09/28 01:17:16;;;;;;;2.90;1.33;;;12.60;99.90;;;;;;5059364;28;20283;-51
2021/09/28 01:19:44;;;;;;;6.23;1.60;;;12.60;99.90;;;;;;5058637;28;20215;-51
2021/09/28 01:22:12;;;;;;;7.47;1.70;;;12.70;99.90;;;;;;5059554;28;20229;-50
2021/09/28 01:24:42;;;;;;;7.13;1.60;;;12.60;99.90;;;;;;5058459;28;20715;-50
2021/09/28 01:27:09;;;;;;;3.53;1.60;;;12.50;99.90;;;;;;5063173;28;20199;-50
2021/09/28 01:29:36;;;;;;;6.47;1.50;;;12.60;99.90;;;;;;5056834;28;21183;-50
2021/09/28 01:32:04;;;;;;;8.20;1.70;;;12.60;99.90;;;;;;5059934;28;20240;-50
2021/09/28 01:34:31;;;;;;;4.37;1.30;;;12.60;99.90;;;;;;5056045;28;20773;-50
2021/09/28 01:36:58;;;;;;;4.33;1.60;;;12.60;99.90;;;;;;5057428;28;20289;-50
2021/09/28 01:39:24;;;;;;;3.57;1.27;;;12.60;99.90;;;;;;5057233;28;20285;-50
2021/09/28 01:41:54;;;;;;;6.47;1.30;;;12.70;99.90;;;;;;5058038;28;20307;-50
2021/09/28 01:44:22;;;;;;;3.83;1.53;;;12.60;99.90;;;;;;5057722;28;20316;-50
2021/09/28 01:46:50;;;;;;;8.77;1.30;;;12.50;99.90;;;;;;5057576;28;20317;-50
2021/09/28 01:49:19;;;;;;;5.90;1.53;;;12.50;99.90;;;;;;5060500;28;20221;-50
2021/09/28 01:51:46;;;;;;;7.03;1.53;;;12.50;99.90;;;;;;5061680;28;20216;-51
2021/09/28 01:54:12;;;;;;;9.20;1.57;;;12.40;99.90;;;;;;5061293;28;20229;-50
2021/09/28 01:56:39;;;;;;;5.10;1.53;;;12.20;99.90;;;;;;5058756;28;20619;-51
2021/09/28 01:59:07;;;;;;;7.50;1.53;;;12.20;99.90;;;;;;5064016;28;20639;-51
2021/09/28 02:01:34;;;;;;;6.17;1.53;;;12.10;99.90;;;;;;5061274;28;20580;-50
2021/09/28 02:04:02;;;;;;;5.10;1.50;;;12.10;99.90;;;;;;5065571;28;20296;-51
2021/09/28 02:06:36;;;;;;;7.83;2.03;;;12.10;99.90;;;;;;5059703;28;20240;-50
2021/09/28 02:09:05;;;;;;;5.13;1.27;;;12.00;99.90;;;;;;5065083;28;20309;-50
2021/09/28 02:11:32;;;;;;;5.30;1.27;;;12.00;99.90;;;;;;5057116;28;20209;-50
2021/09/28 02:14:00;;;;;;;2.70;1.10;;;12.10;99.90;;;;;;5064284;28;20619;-50
2021/09/28 02:16:27;;;;;;;6.07;1.90;;;12.00;99.90;;;;;;5065092;28;20603;-50
2021/09/28 02:18:54;;;;;;;5.07;1.60;;;12.00;99.90;;;;;;5062640;28;20210;-50
2021/09/28 02:21:21;;;;;;;4.23;1.50;;;12.00;99.90;;;;;;5040535;28;20242;-51
2021/09/28 02:23:48;;;;;;;4.67;1.20;;;11.90;99.90;;;;;;5064599;28;20269;-50
2021/09/28 02:26:15;;;;;;;4.20;1.90;;;12.00;99.90;;;;;;5060415;28;20396;-50
2021/09/28 02:28:42;;;;;;;3.63;1.30;;;11.90;99.90;;;;;;5064166;28;20236;-51
2021/09/28 02:31:08;;;;;;;8.30;1.70;;;12.00;99.90;;;;;;5063283;28;20289;-50
2021/09/28 02:33:35;;;;;;;5.03;1.43;;;12.00;99.90;;;;;;5061534;28;20203;-50
2021/09/28 02:36:02;;;;;;;7.27;1.60;;;12.00;99.90;;;;;;5059481;28;20288;-50
2021/09/28 02:38:29;;;;;;;4.53;1.50;;;11.70;99.90;;;;;;5047282;28;20223;-50
2021/09/28 02:40:56;;;;;;;8.10;1.73;;;11.80;99.90;;;;;;5059118;28;20625;-50
2021/09/28 02:43:23;;;;;;;4.97;1.30;;;12.00;99.90;;;;;;5066586;28;20208;-51
2021/09/28 02:45:50;;;;;;;7.37;1.60;;;12.00;99.90;;;;;;5067362;28;20220;-50
2021/09/28 02:48:18;;;;;;;4.93;1.53;;;12.00;99.90;;;;;;5064665;28;20197;-50
2021/09/28 02:50:45;;;;;;;5.70;1.30;;;12.00;99.90;;;;;;5058202;28;20201;-50
2021/09/28 02:53:12;;;;;;;6.43;1.37;;;11.90;99.90;;;;;;5063079;28;20331;-51
2021/09/28 02:55:39;;;;;;;5.23;1.30;;;12.10;99.90;;;;;;5058445;28;20193;-50
2021/09/28 02:58:06;;;;;;;8.53;1.37;;;12.10;99.90;;;;;;5063464;28;20726;-50
2021/09/28 03:00:34;;;;;;;8.00;1.47;;;12.10;99.90;;;;;;5063088;28;20288;-51
2021/09/28 03:03:01;;;;;;;10.10;1.27;;;12.00;99.90;;;;;;5061766;28;20282;-50
2021/09/28 03:05:28;;;;;;;9.20;1.73;;;12.00;99.90;;;;;;5061035;28;20196;-50
2021/09/28 03:07:55;;;;;;;5.47;1.43;;;12.00;99.90;;;;;;5062575;28;20221;-50
2021/09/28 03:10:22;;;;;;;3.70;1.20;;;12.10;99.90;;;;;;5056890;28;20240;-50
2021/09/28 03:12:49;;;;;;;7.40;1.57;;;11.90;99.90;;;;;;5059762;28;20235;-50
2021/09/28 03:15:15;;;;;;;5.43;1.20;;;11.90;99.90;;;;;;5063837;28;20224;-50
2021/09/28 03:17:42;;;;;;;5.83;1.53;;;11.90;99.90;;;;;;5076899;28;20663;-50
2021/09/28 03:20:10;;;;;;;4.47;1.37;;;11.90;99.90;;;;;;5061811;28;20275;-50
2021/09/28 03:22:37;;;;;;;6.73;2.03;;;11.90;99.90;;;;;;5062929;28;20227;-50
2021/09/28 03:25:04;;;;;;;6.67;1.60;;;11.80;99.90;;;;;;5061830;28;20227;-50
2021/09/28 03:27:31;;;;;;;7.70;1.53;;;11.90;99.90;;;;;;5062950;28;20192;-50
2021/09/28 03:29:58;;;;;;;6.27;1.60;;;12.00;99.90;;;;;;5063731;28;20335;-50
2021/09/28 03:32:25;;;;;;;4.07;1.30;;;12.00;99.90;;;;;;5060362;28;20220;-50
2021/09/28 03:34:51;;;;;;;8.10;1.67;;;12.00;99.90;;;;;;5062127;28;20292;-50
2021/09/28 03:37:18;;;;;;;6.53;1.43;;;12.00;99.90;;;;;;5056859;28;20265;-50
2021/09/28 03:39:45;;;;;;;4.70;1.47;;;12.10;99.90;;;;;;5060561;28;20747;-50
2021/09/28 03:42:12;;;;;;;5.13;1.60;;;12.00;99.90;;;;;;5062498;28;20681;-50
2021/09/28 03:44:38;;;;;;;6.53;1.50;;;12.10;99.90;;;;;;5063328;28;20691;-50
2021/09/28 03:47:05;;;;;;;8.53;1.87;;;12.10;99.90;;;;;;5058695;28;20628;-51
2021/09/28 03:49:32;;;;;;;3.57;1.20;;;12.10;99.90;;;;;;5061763;28;20286;-50
2021/09/28 03:51:59;;;;;;;8.17;1.33;;;12.00;99.90;;;;;;5064983;28;20204;-50
2021/09/28 03:54:26;;;;;;;7.43;1.53;;;12.10;99.90;;;;;;5059001;28;20581;-50
2021/09/28 03:56:52;;;;;;;5.73;1.47;;;12.10;99.90;;;;;;5035172;28;20343;-51
2021/09/28 03:59:19;;;;;;;4.93;1.30;;;12.10;99.90;;;;;;5062139;28;20325;-50
2021/09/28 04:01:46;;;;;;;3.70;1.47;;;12.00;99.90;;;;;;5032096;28;20208;-50
2021/09/28 04:04:14;;;;;;;6.20;1.50;;;12.00;99.90;;;;;;5060335;28;20229;-50
2021/09/28 04:06:40;;;;;;;4.90;1.20;;;12.00;99.90;;;;;;5060721;28;20644;-50
2021/09/28 04:09:07;;;;;;;5.47;1.40;;;12.00;99.90;;;;;;5064114;28;20211;-51
2021/09/28 04:11:34;;;;;;;4.83;1.17;;;12.00;99.90;;;;;;5059289;28;20645;-51
2021/09/28 04:14:01;;;;;;;3.73;1.47;;;12.10;99.90;;;;;;5061638;28;20231;-51
2021/09/28 04:16:29;;;;;;;5.63;1.60;;;11.90;99.90;;;;;;5060419;28;20271;-50
2021/09/28 04:18:56;;;;;;;5.40;1.30;;;11.90;99.90;;;;;;5061510;28;20284;-50
2021/09/28 04:21:27;;;;;;;4.93;1.33;;;11.80;99.90;;;;;;5044209;28;20218;-50
2021/09/28 04:23:54;;;;;;;3.97;1.20;;;11.80;99.90;;;;;;5061019;28;20438;-50
2021/09/28 04:26:21;;;;;;;5.07;1.30;;;11.80;99.90;;;;;;5058843;28;20236;-52
2021/09/28 04:28:48;;;;;;;8.13;1.60;;;11.80;99.90;;;;;;5059613;28;20234;-50
2021/09/28 04:31:15;;;;;;;8.23;1.60;;;11.90;99.90;;;;;;5062602;28;20607;-50
2021/09/28 04:33:43;;;;;;;3.20;1.23;;;11.80;99.90;;;;;;5054239;28;20241;-50
2021/09/28 04:36:10;;;;;;;7.77;1.50;;;11.80;99.90;;;;;;5060117;28;20209;-50
2021/09/28 04:38:38;;;;;;;7.40;1.70;;;12.00;99.90;;;;;;5062435;28;20320;-50
2021/09/28 04:41:05;;;;;;;3.53;1.20;;;12.00;99.90;;;;;;5060116;28;20261;-50
2021/09/28 04:43:32;;;;;;;5.30;1.80;;;11.90;99.90;;;;;;5059840;28;20274;-50
2021/09/28 04:45:58;;;;;;;4.60;1.27;;;11.90;99.90;;;;;;5063406;28;20260;-50
2021/09/28 04:48:26;;;;;;;5.30;1.53;;;12.00;99.90;;;;;;5060024;28;20269;-50
2021/09/28 04:50:53;;;;;;;6.00;1.50;;;12.00;99.90;;;;;;5060471;28;20216;-52
2021/09/28 04:53:21;;;;;;;5.73;1.63;;;11.90;99.90;;;;;;5060697;28;20257;-50
2021/09/28 04:55:48;;;;;;;4.60;1.50;;;11.90;99.90;;;;;;5057211;28;20280;-50
2021/09/28 04:58:15;;;;;;;4.90;1.30;;;11.90;99.90;;;;;;5062836;28;20198;-50
2021/09/28 05:00:42;;;;;;;6.37;1.57;;;11.80;99.90;;;;;;5056966;28;20701;-50
2021/09/28 05:03:09;;;;;;;6.90;1.50;;;11.70;99.90;;;;;;5059961;28;20257;-50
2021/09/28 05:05:36;;;;;;;8.53;1.80;;;11.70;99.90;;;;;;5043373;28;20206;-50
2021/09/28 05:08:02;;;;;;;6.03;1.20;;;11.80;99.90;;;;;;5067438;28;20305;-50
2021/09/28 05:10:29;;;;;;;4.70;1.00;;;11.80;99.90;;;;;;5061679;28;20251;-50
2021/09/28 05:12:56;;;;;;;5.90;1.70;;;11.70;99.90;;;;;;5061502;28;20616;-50
2021/09/28 05:15:23;;;;;;;4.87;1.43;;;11.80;99.90;;;;;;5054896;28;20683;-50
2021/09/28 05:17:50;;;;;;;6.67;1.53;;;11.70;99.90;;;;;;5062285;28;20297;-50
2021/09/28 05:20:17;;;;;;;4.50;1.03;;;11.80;99.90;;;;;;5058512;28;20287;-50
2021/09/28 05:22:45;;;;;;;3.50;1.00;;;11.70;99.90;;;;;;5063925;28;20293;-50
2021/09/28 05:25:12;;;;;;;5.70;1.30;;;11.80;99.90;;;;;;5055809;28;20211;-50
2021/09/28 05:27:39;;;;;;;6.40;1.37;;;11.70;99.90;;;;;;5060809;28;20226;-50
2021/09/28 05:30:07;;;;;;;4.97;1.40;;;11.70;99.90;;;;;;5061524;28;20205;-50
2021/09/28 05:32:34;;;;;;;6.43;2.00;;;11.80;99.90;;;;;;5060503;28;20230;-50
2021/09/28 05:35:01;;;;;;;4.17;1.70;;;11.80;99.90;;;;;;5062746;28;20206;-51
2021/09/28 05:37:28;;;;;;;3.37;1.37;;;11.70;99.90;;;;;;5064475;28;20238;-51
2021/09/28 05:39:55;;;;;;;6.37;1.50;;;11.60;99.90;;;;;;5041659;28;20288;-50
2021/09/28 05:42:21;;;;;;;5.77;1.50;;;11.50;99.90;;;;;;5059323;28;20226;-51
2021/09/28 05:44:48;;;;;;;6.83;1.43;;;11.50;99.90;;;;;;5064736;28;20242;-51
2021/09/28 05:47:15;;;;;;;4.53;1.60;;;11.60;99.90;;;;;;5063759;28;20715;-51
2021/09/28 05:49:42;;;;;;;6.93;1.77;;;11.70;99.90;;;;;;5065842;28;20852;-51
2021/09/28 05:52:12;;;;;;;6.90;1.43;;;11.60;99.90;;;;;;5060556;28;20687;-50
2021/09/28 05:54:47;;;;;;;4.57;1.50;;;11.60;99.90;;;;;;5061565;28;20228;-50
2021/09/28 05:57:15;;;;;;;5.30;1.37;;;11.50;99.90;;;;;;5062072;28;20228;-51
2021/09/28 05:59:42;;;;;;;4.63;1.63;;;11.50;99.90;;;;;;5062330;28;20205;-50
2021/09/28 06:02:09;;;;;;;7.77;1.63;;;11.60;99.90;;;;;;5057859;28;20211;-50
2021/09/28 06:04:37;;;;;;;3.07;1.60;;;11.70;99.90;;;;;;5063893;28;20350;-51
2021/09/28 06:07:05;;;;;;;7.30;2.13;;;11.70;99.90;;;;;;5059878;28;20292;-50
2021/09/28 06:09:35;;;;;;;4.30;1.57;;;11.70;99.90;;;;;;5060545;28;20260;-50
2021/09/28 06:12:04;;;;;;;13.50;1.80;;;11.70;99.90;;;;;;5056412;28;20244;-50
2021/09/28 06:14:31;;;;;;;4.53;2.13;;;11.70;99.90;;;;;;5067505;28;20309;-51
2021/09/28 06:16:59;;;;;;;7.83;1.70;;;11.70;99.90;;;;;;5061636;28;20234;-50
2021/09/28 06:19:28;;;;;;;6.73;1.73;;;11.70;99.90;;;;;;5064302;28;20275;-50
2021/09/28 06:21:56;;;;;;;5.60;1.50;;;11.70;99.90;;;;;;5059051;28;20231;-50
2021/09/28 06:24:23;;;;;;;4.37;1.77;;;11.60;99.90;;;;;;5042981;28;20343;-50
2021/09/28 06:26:50;;;;;;;7.33;1.47;;;11.80;99.90;;;;;;5060765;28;20203;-50
2021/09/28 06:29:17;;;;;;;2.90;1.63;;;11.90;99.90;;;;;;5064794;28;20284;-51
2021/09/28 06:31:45;;;;;;;6.47;1.93;;;11.90;99.90;;;;;;5067046;28;20229;-50
2021/09/28 06:34:12;;;;;;;4.13;1.93;;;11.70;99.90;;;;;;5060140;28;20200;-50
2021/09/28 06:36:38;;;;;;;4.10;1.90;;;11.80;99.90;;;;;;5059742;28;20228;-50
2021/09/28 06:39:07;;;;;;;3.53;1.60;;;11.80;99.90;;;;;;5058715;28;20220;-50
2021/09/28 06:41:34;;;;;;;5.30;1.73;;;11.70;99.90;;;;;;5063468;28;20556;-50
2021/09/28 06:44:01;;;;;;;5.43;1.80;;;11.80;99.90;;;;;;5071101;28;20645;-50
2021/09/28 06:46:28;;;;;;;6.93;2.20;;;11.80;99.90;;;;;;5059844;28;20653;-50
2021/09/28 06:48:55;;;;;;;4.73;2.07;;;11.80;99.90;;;;;;5067734;28;20681;-50
2021/09/28 06:51:22;;;;;;;9.73;2.10;;;11.80;99.90;;;;;;5062355;28;20243;-50
2021/09/28 06:53:49;;;;;;;3.97;1.80;;;11.80;99.90;;;;;;5060976;28;20287;-50
2021/09/28 06:56:20;;;;;;;5.70;2.17;;;11.70;99.90;;;;;;5061745;28;20198;-50
2021/09/28 06:58:48;;;;;;;7.73;2.10;;;11.60;99.90;;;;;;5060204;28;20721;-50
2021/09/28 07:01:15;;;;;;;6.30;2.33;;;11.90;99.90;;;;;;5076294;28;20306;-51
2021/09/28 07:03:42;;;;;;;5.53;2.53;;;12.00;99.90;;;;;;5059318;28;20617;-51
2021/09/28 07:06:09;;;;;;;4.27;1.83;;;12.10;99.90;;;;;;5045842;28;20212;-50
2021/09/28 07:08:36;;;;;;;9.40;2.17;;;12.10;99.90;;;;;;5058941;28;20246;-51
2021/09/28 07:11:03;;;;;;;5.50;1.83;;;12.10;99.90;;;;;;5060561;28;20230;-51
2021/09/28 07:13:29;;;;;;;4.30;2.20;;;12.30;99.90;;;;;;5059903;28;20227;-51
2021/09/28 07:15:56;;;;;;;6.27;2.43;;;12.30;99.90;;;;;;5055663;28;20224;-50
2021/09/28 07:18:23;;;;;;;7.97;1.90;;;12.40;99.90;;;;;;5062315;28;20228;-51
2021/09/28 07:20:50;;;;;;;7.50;2.00;;;12.50;99.90;;;;;;5072702;28;20232;-51
2021/09/28 07:23:16;;;;;;;4.37;2.13;;;12.60;99.90;;;;;;5057705;28;20321;-50
2021/09/28 07:25:43;;;;;;;2.60;1.93;;;12.80;99.90;;;;;;5052049;28;22055;-51
2021/09/28 07:28:10;;;;;;;9.20;2.40;;;12.70;99.90;;;;;;5056287;28;20293;-51
2021/09/28 07:30:40;;;;;;;5.60;1.70;;;12.90;99.90;;;;;;5056774;28;20208;-51
2021/09/28 07:33:07;;;;;;;4.90;2.27;;;12.90;99.90;;;;;;5053990;28;20238;-51
2021/09/28 07:35:34;;;;;;;3.40;2.10;;;13.00;99.90;;;;;;5054144;28;20311;-51
2021/09/28 07:38:00;;;;;;;8.07;2.57;;;12.80;99.90;;;;;;5060184;28;20649;-50
2021/09/28 07:40:27;;;;;;;8.70;2.17;;;13.10;99.90;;;;;;5058756;28;20356;-51
2021/09/28 07:42:54;;;;;;;8.57;2.63;;;13.30;99.90;;;;;;5040993;28;20219;-51
2021/09/28 07:45:21;;;;;;;5.23;2.03;;;13.30;99.90;;;;;;5055080;28;20289;-51
2021/09/28 07:47:48;;;;;;;4.37;2.07;;;13.40;99.90;;;;;;5078078;28;20204;-51
2021/09/28 07:50:15;;;;;;;6.47;2.23;;;13.50;99.90;;;;;;5048417;28;20229;-51
2021/09/28 07:52:41;;;;;;;4.73;2.10;;;13.50;99.90;;;;;;5069538;28;20286;-51
2021/09/28 07:55:09;;;;;;;5.93;1.80;;;13.70;99.90;;;;;;5061869;28;20197;-51
2021/09/28 07:57:37;;;;;;;5.03;1.80;;;13.90;99.90;;;;;;5063580;28;20194;-51
2021/09/28 08:00:08;;;;;;;6.00;2.40;;;13.90;99.90;;;;;;5067484;28;20290;-51
2021/09/28 08:02:38;;;;;;;5.77;2.20;;;14.20;99.90;;;;;;5057643;28;20201;-51
2021/09/28 08:05:07;;;;;;;8.63;2.53;;;14.30;99.90;;;;;;5056258;28;20253;-51
2021/09/28 08:07:34;;;;;;;6.17;2.10;;;14.40;99.90;;;;;;5059086;28;20743;-51
2021/09/28 08:10:02;;;;;;;6.97;2.37;;;14.60;99.90;;;;;;5049334;28;20268;-51
2021/09/28 08:12:29;;;;;;;5.60;2.20;;;14.80;99.90;;;;;;5061875;28;20303;-51
2021/09/28 08:14:55;;;;;;;7.50;2.43;;;14.80;99.90;;;;;;5062589;28;20230;-51
2021/09/28 08:17:23;;;;;;;7.33;2.53;;;14.80;99.90;;;;;;5061813;28;20230;-50
2021/09/28 08:19:52;;;;;;;5.27;2.00;;;14.70;99.90;;;;;;5057209;28;20306;-51
2021/09/28 08:22:19;;;;;;;5.80;1.80;;;15.30;99.90;;;;;;5061561;28;20356;-51
2021/09/28 08:24:50;;;;;;;5.83;2.20;;;15.50;99.90;;;;;;5059783;28;20345;-51
2021/09/28 08:30:07;;;;;;;9.90;4.07;;;15.30;99.90;;;;;;5058491;28;20621;-51
2021/09/28 08:32:34;;;;;;;5.97;2.30;;;15.90;99.90;;;;;;5064442;28;20314;-51
2021/09/28 08:35:02;;;;;;;9.33;2.57;;;16.20;99.90;;;;;;5065560;28;20198;-51
2021/09/28 08:37:29;;;;;;;6.00;2.10;;;16.10;99.90;;;;;;5059388;28;20243;-51
2021/09/28 08:39:56;;;;;;;3.43;2.10;;;16.20;58.20;;;;;;5056634;28;20644;-51
2021/09/28 08:42:25;;;;;;;3.37;1.93;;;16.10;94.90;;;;;;5064306;28;20204;-52
2021/09/28 08:44:52;;;;;;;5.97;2.30;;;16.30;99.90;;;;;;5059219;28;20650;-52
2021/09/28 08:47:41;;;;;;;5.30;1.93;;;16.20;98.70;;;;;;5061437;28;20212;-51
2021/09/28 08:50:17;;;;;;;5.73;1.93;;;16.10;76.20;;;;;;5057968;28;20580;-52
2021/09/28 08:52:47;;;;;;;4.33;1.50;;;16.10;99.90;;;;;;5061782;28;20664;-52
2021/09/28 08:55:23;;;;;;;6.90;2.20;;;16.70;37.90;;;;;;5062629;28;20592;-52
2021/09/28 08:58:14;;;;;;;3.37;1.33;;;16.50;8.90;;;;;;5053461;28;20244;-51
2021/09/28 09:00:41;;;;;;;8.70;1.87;;;16.90;1.00;;;;;;5056332;28;20538;-52
2021/09/28 09:03:24;;;;;;;10.63;2.13;;;16.90;1.00;;;;;;5036610;28;20215;-51
2021/09/28 09:05:51;;;;;;;5.90;2.23;;;17.50;1.00;;;;;;5058838;28;20204;-51
2021/09/28 09:08:30;;;;;;;5.77;1.73;;;17.50;1.00;;;;;;5059391;28;20599;-51
2021/09/28 09:11:14;;;;;;;10.13;2.60;;;17.40;1.00;;;;;;5057713;28;20236;-52
2021/09/28 09:13:51;;;;;;;7.33;2.20;;;17.00;1.00;;;;;;5050679;28;20207;-52
2021/09/28 09:16:19;;;;;;;9.03;2.20;;;17.20;13.00;;;;;;5060995;28;20237;-52
2021/09/28 09:19:08;;;;;;;9.90;2.37;;;16.70;1.00;;;;;;5056022;28;20274;-52
2021/09/28 09:21:52;;;;;;;7.90;2.40;;;16.30;1.00;;;;;;5056109;28;20237;-52
2021/09/28 09:24:41;;;;;;;7.20;2.37;;;16.50;1.00;;;;;;5057756;28;20608;-52
2021/09/28 09:27:11;;;;;;;8.63;2.70;;;16.80;1.00;;;;;;5061677;28;20200;-52
2021/09/28 09:29:43;;;;;;;6.17;2.57;;;16.50;1.00;;;;;;5057008;28;20618;-52
2021/09/28 09:32:11;;;;;;;4.77;2.20;;;16.60;1.00;;;;;;5058443;28;20337;-51
2021/09/28 09:34:38;;;;;;;8.23;2.23;;;16.80;1.00;;;;;;5060380;28;21167;-51
2021/09/28 09:37:08;;;;;;;5.63;2.30;;;16.70;1.00;;;;;;5071220;28;20232;-52
2021/09/28 09:39:55;;;;;;;6.97;2.23;;;16.70;1.00;;;;;;5040965;28;20209;-51
2021/09/28 09:42:26;;;;;;;5.17;2.13;;;16.50;1.00;;;;;;5057801;28;20208;-52
2021/09/28 09:44:53;;;;;;;10.27;2.43;;;16.60;1.00;;;;;;5063022;28;20259;-52
2021/09/28 09:47:33;;;;;;;7.47;2.07;;;16.70;1.00;;;;;;5057780;28;20329;-52
2021/09/28 09:50:13;;;;;;;7.57;2.20;;;16.70;1.00;;;;;;5064129;28;20204;-52
2021/09/28 09:53:00;;;;;;;7.40;2.53;;;16.90;1.00;;;;;;5046364;28;20253;-51
2021/09/28 09:55:28;;;;;;;7.23;2.43;;;16.90;1.00;;;;;;5055224;28;20200;-52
2021/09/28 09:57:55;;;;;;;9.83;2.40;;;17.10;99.90;;;;;;5060307;28;20234;-51
2021/09/28 10:00:22;;;;;;;6.93;2.17;;;17.10;1.00;;;;;;5062191;28;20684;-52
2021/09/28 10:02:50;;;;;;;8.23;2.07;;;17.10;1.00;;;;;;5061096;28;20205;-52
2021/09/28 10:05:18;;;;;;;6.40;2.00;;;17.20;1.00;;;;;;5062685;28;20284;-52
2021/09/28 10:07:49;;;;;;;7.83;1.70;;;17.10;1.00;;;;;;5056555;28;20239;-52
2021/09/28 10:10:17;;;;;;;8.90;2.00;;;17.30;1.00;;;;;;5051660;28;20673;-51
2021/09/28 10:12:45;;;;;;;6.60;2.70;;;17.30;1.00;;;;;;5060042;28;20249;-51
2021/09/28 10:15:14;;;;;;;11.43;2.37;;;17.30;99.90;;;;;;5064275;28;20223;-52
2021/09/28 10:17:43;;;;;;;8.63;1.93;;;17.20;1.00;;;;;;5047651;28;20231;-51
2021/09/28 10:20:29;;;;;;;7.63;2.33;;;17.10;99.90;;;;;;5062056;28;20189;-52
2021/09/28 10:23:28;;;;;;;6.67;1.97;;;17.10;1.00;;;;;;5062988;28;20244;-51
2021/09/28 10:26:14;;;;;;;5.77;1.70;;;17.30;1.00;;;;;;5021710;28;20699;-52
2021/09/28 10:28:41;;;;;;;9.23;2.20;;;17.60;1.00;;;;;;5069419;28;20201;-52
2021/09/28 10:31:28;;;;;;;9.50;2.50;;;17.40;99.90;;;;;;5059723;28;20207;-52
2021/09/28 10:33:55;;;;;;;6.70;2.00;;;17.40;1.00;;;;;;5068485;28;20226;-52
2021/09/28 10:36:25;;;;;;;5.63;1.80;;;17.70;99.90;;;;;;5065305;28;20565;-52
2021/09/28 10:38:54;;;;;;;7.40;2.20;;;17.90;1.00;;;;;;5066202;28;20215;-52
2021/09/28 10:41:48;;;;;;;4.13;1.47;;;17.80;99.90;;;;;;5040861;28;20211;-52
2021/09/28 10:44:41;;;;;;;5.53;1.63;;;17.80;1.00;;;;;;5042810;28;20610;-52
2021/09/28 10:47:47;;;;;;;6.67;1.60;;;17.80;1.00;;;;;;5065903;28;20205;-52
2021/09/28 10:50:15;;;;;;;5.47;1.20;;;18.10;99.90;;;;;;5068873;28;20696;-52
2021/09/28 10:52:42;;;;;;;11.63;2.10;;;18.00;1.00;;;;;;5069834;28;20303;-52
2021/09/28 10:55:13;;;;;;;5.40;1.53;;;18.00;1.00;;;;;;5067892;28;20485;-52
2021/09/28 11:00:40;;;;;;;6.93;1.53;;;18.30;99.90;;;;;;5060114;28;20573;-52
2021/09/28 11:03:10;;;;;;;8.10;1.53;;;18.30;99.90;;;;;;5069628;28;20206;-52
2021/09/28 11:05:56;;;;;;;9.07;1.67;;;18.40;99.90;;;;;;5068677;28;20205;-52
2021/09/28 11:08:23;;;;;;;5.60;1.23;;;18.40;10.30;;;;;;5069509;28;20250;-52
2021/09/28 11:10:59;;;;;;;7.30;1.10;;;18.40;1.00;;;;;;5066823;28;20264;-52
2021/09/28 11:13:31;;;;;;;4.63;1.40;;;18.40;1.00;;;;;;5057710;28;20310;-52
2021/09/28 11:15:59;;;;;;;5.97;1.30;;;18.60;1.00;;;;;;5047376;28;20289;-52
2021/09/28 11:18:26;;;;;;;4.87;1.00;;;18.70;99.90;;;;;;5067961;28;20237;-52
2021/09/28 11:20:53;;;;;;;3.70;1.13;;;18.60;99.90;;;;;;5065175;28;20633;-52
2021/09/28 11:23:20;;;;;;;3.50;1.00;;;18.60;1.00;;;;;;5061865;28;20629;-52
2021/09/28 11:25:49;;;;;;;6.67;1.40;;;18.80;1.00;;;;;;5058534;28;20215;-52
2021/09/28 11:28:18;;;;;;;6.60;1.93;;;19.00;1.00;;;;;;5064580;28;20228;-52
2021/09/28 11:30:57;;;;;;;3.23;0.80;;;19.20;1.00;;;;;;5043525;28;20241;-52
2021/09/28 11:33:25;;;;;;;4.50;0.87;;;19.20;1.00;;;;;;5060510;28;20288;-52
2021/09/28 11:36:00;;;;;;;7.37;1.27;;;19.10;99.90;;;;;;5066618;28;20196;-52
2021/09/28 11:38:28;;;;;;;6.00;1.00;;;19.20;99.90;;;;;;5060621;28;20226;-50
2021/09/28 11:41:07;;;;;;;3.23;0.87;;;19.20;99.90;;;;;;5065618;28;20238;-52
2021/09/28 11:43:35;;;;;;;4.60;1.20;;;18.90;1.00;;;;;;5058238;28;20202;-52
2021/09/28 11:46:14;;;;;;;6.73;1.30;;;19.00;1.00;;;;;;5046664;28;20200;-52
2021/09/28 11:48:48;;;;;;;3.27;1.00;;;19.00;1.00;;;;;;5064289;28;20203;-52
2021/09/28 11:51:25;;;;;;;5.70;0.90;;;19.10;99.90;;;;;;5066925;28;20314;-51
2021/09/28 11:53:52;;;;;;;6.23;1.07;;;19.10;1.00;;;;;;5054755;28;20697;-52
2021/09/28 11:56:19;;;;;;;3.73;1.30;;;19.50;99.90;;;;;;5059550;28;20386;-52
2021/09/28 11:58:48;;;;;;;4.03;1.20;;;20.10;99.90;;;;;;5067043;28;20238;-52
2021/09/28 12:01:18;;;;;;;4.13;1.20;;;20.00;1.00;;;;;;5046206;28;20283;-52
2021/09/28 12:09:29;;;;;;;3.50;0.97;;;20.20;1.00;;;;;;5057088;28;20203;-52
2021/09/28 12:11:59;;;;;;;3.13;1.20;;;20.40;1.00;;;;;;5063431;28;20282;-52
2021/09/28 12:14:34;;;;;;;4.40;0.97;;;20.30;1.00;;;;;;5067933;28;20216;-52
2021/09/28 12:17:45;;;;;;;5.27;1.30;;;20.80;1.00;;;;;;5059950;28;20328;-49
2021/09/28 12:20:14;;;;;;;2.03;1.00;;;20.70;1.00;;;;;;5039756;28;20239;-50
2021/09/28 12:22:59;;;;;;;5.37;1.37;;;21.10;1.00;;;;;;5063463;28;20237;-50
2021/09/28 12:25:36;;;;;;;4.27;1.40;;;20.70;1.00;;;;;;5033755;28;20258;-53
2021/09/28 12:28:24;;;;;;;2.37;1.00;;;21.00;1.00;;;;;;5051663;28;20284;-51
2021/09/28 12:30:54;;;;;;;4.77;1.20;;;21.00;1.00;;;;;;5062997;28;20202;-51
2021/09/28 12:33:23;;;;;;;3.60;1.20;;;20.80;1.00;;;;;;5054385;28;20573;-50
2021/09/28 12:35:57;;;;;;;6.23;1.30;;;20.80;1.00;;;;;;5060473;28;20192;-50
2021/09/28 12:38:25;;;;;;;3.77;0.77;;;21.30;1.00;;;;;;5062364;28;20217;-53
2021/09/28 12:41:02;;;;;;;5.83;1.13;;;21.30;1.00;;;;;;5074593;28;20662;-50
2021/09/28 12:43:29;;;;;;;3.70;0.90;;;21.90;1.00;;;;;;5059762;28;20239;-50
2021/09/28 12:46:00;;;;;;;3.90;1.20;;;21.50;1.00;;;;;;5062973;28;20615;-51
2021/09/28 12:48:40;;;;;;;4.37;1.30;;;20.90;1.00;;;;;;5061593;28;20569;-51
2021/09/28 12:51:12;;;;;;;3.70;1.10;;;21.10;1.00;;;;;;5058287;28;20238;-51
2021/09/28 12:53:39;;;;;;;4.13;1.27;;;21.70;1.00;;;;;;5054423;28;20248;-51
2021/09/28 12:56:06;;;;;;;4.83;1.37;;;21.10;1.00;;;;;;5061609;28;20623;-52
2021/09/28 12:58:34;;;;;;;6.10;1.50;;;21.10;1.00;;;;;;5059122;28;20203;-52
2021/09/28 13:01:05;;;;;;;4.87;1.53;;;20.70;1.00;;;;;;5058703;28;20206;-52
2021/09/28 13:03:33;;;;;;;5.87;1.00;;;20.70;1.00;;;;;;5061141;28;20227;-52
2021/09/28 13:06:03;;;;;;;5.67;1.00;;;20.90;1.00;;;;;;5054199;28;20304;-50
2021/09/28 13:08:31;;;;;;;6.60;1.33;;;21.30;1.00;;;;;;5069524;28;20299;-50
2021/09/28 13:11:00;;;;;;;3.53;0.87;;;21.00;1.00;;;;;;5045833;28;20237;-52